createdAt,value
2019-01-26T00:00:53.894Z,34.23
2019-01-26T00:03:22.310Z,36.10
2019-01-26T00:05:50.577Z,36.83
2019-01-26T00:10:52.801Z,43.70
2019-01-26T00:13:21.292Z,43.87
2019-01-26T00:15:49.558Z,45.63
2019-01-26T00:18:19.560Z,43.77
2019-01-26T00:20:47.839Z,39.47
2019-01-26T00:23:16.139Z,44.23
2019-01-26T00:25:44.397Z,37.20
2019-01-26T00:28:12.706Z,42.10
2019-01-26T00:30:41.474Z,46.08
2019-01-26T00:33:10.558Z,46.70
2019-01-26T00:35:39.820Z,46.13
2019-01-26T00:38:08.339Z,43.67
2019-01-26T00:40:36.688Z,40.67
2019-01-26T00:43:06.657Z,40.73
2019-01-26T00:45:34.931Z,41.87
2019-01-26T00:48:03.573Z,45.15
2019-01-26T00:50:31.833Z,44.07
2019-01-26T00:53:01.030Z,48.53
2019-01-26T00:55:30.921Z,45.33
2019-01-26T00:57:59.583Z,51.37
2019-01-26T01:00:27.885Z,48.30
2019-01-26T01:02:57.795Z,43.87
2019-01-26T01:05:26.130Z,43.83
2019-01-26T01:07:54.456Z,47.03
2019-01-26T01:10:30.195Z,43.58
2019-01-26T01:12:58.471Z,44.67
2019-01-26T01:15:26.780Z,44.80
2019-01-26T01:17:55.087Z,39.73
2019-01-26T01:20:24.567Z,45.57
2019-01-26T01:22:52.830Z,42.50
2019-01-26T01:25:22.022Z,42.07
2019-01-26T01:27:50.286Z,41.95
2019-01-26T01:30:24.779Z,44.40
2019-01-26T01:32:52.952Z,44.83
2019-01-26T01:35:21.236Z,41.03
2019-01-26T01:37:49.570Z,42.47
2019-01-26T01:40:18.471Z,43.50
2019-01-26T01:42:46.770Z,41.33
2019-01-26T01:45:17.913Z,41.07
2019-01-26T01:47:46.274Z,43.93
2019-01-26T01:50:16.001Z,45.67
2019-01-26T01:52:44.260Z,49.23
2019-01-26T01:55:12.895Z,52.77
2019-01-26T01:57:41.190Z,51.73
2019-01-26T02:00:18.029Z,48.33
2019-01-26T02:02:46.320Z,52.00
2019-01-26T02:05:14.611Z,54.30
2019-01-26T02:07:42.872Z,50.83
2019-01-26T02:10:14.003Z,50.53
2019-01-26T02:12:42.324Z,55.80
2019-01-26T02:15:11.975Z,56.80
2019-01-26T02:17:40.517Z,54.93
2019-01-26T02:20:14.721Z,52.57
2019-01-26T02:22:45.125Z,51.40
2019-01-26T02:25:13.411Z,56.67
2019-01-26T02:27:41.699Z,57.40
2019-01-26T02:30:12.946Z,54.27
2019-01-26T02:32:41.209Z,55.27
2019-01-26T02:35:12.765Z,57.97
2019-01-26T02:37:41.025Z,49.43
2019-01-26T02:40:11.551Z,50.57
2019-01-26T02:42:39.870Z,50.67
2019-01-26T02:45:09.677Z,51.40
2019-01-26T02:47:37.987Z,57.30
2019-01-26T02:50:09.492Z,53.77
2019-01-26T02:52:37.991Z,53.53
2019-01-26T02:55:06.380Z,53.03
2019-01-26T02:57:34.777Z,52.50
2019-01-26T03:00:05.027Z,51.42
2019-01-26T03:02:33.353Z,49.77
2019-01-26T03:05:01.660Z,49.15
2019-01-26T03:07:29.924Z,50.40
2019-01-26T03:10:01.473Z,51.73
2019-01-26T03:12:29.769Z,52.03
2019-01-26T03:14:58.023Z,48.60
2019-01-26T03:17:29.641Z,50.70
2019-01-26T03:19:57.900Z,51.60
2019-01-26T03:22:26.222Z,57.70
2019-01-26T03:24:55.745Z,48.73
2019-01-26T03:27:24.030Z,52.73
2019-01-26T03:29:52.316Z,52.27
2019-01-26T03:32:20.584Z,48.88
2019-01-26T03:34:48.837Z,48.17
2019-01-26T03:37:18.724Z,49.33
2019-01-26T03:39:47.012Z,45.60
2019-01-26T03:42:15.326Z,43.67
2019-01-26T03:44:43.659Z,48.73
2019-01-26T03:47:13.764Z,48.17
2019-01-26T03:49:41.990Z,48.45
2019-01-26T03:52:10.254Z,49.53
2019-01-26T03:54:38.549Z,52.30
2019-01-26T03:57:06.810Z,46.63
2019-01-26T03:59:35.091Z,45.77
2019-01-26T04:02:03.393Z,45.25
2019-01-26T04:04:31.756Z,44.23
2019-01-26T04:07:01.849Z,39.40
2019-01-26T04:09:30.165Z,46.03
2019-01-26T04:11:58.439Z,45.57
2019-01-26T04:14:26.707Z,43.23
2019-01-26T04:16:55.217Z,39.20
2019-01-26T04:19:23.469Z,47.58
2019-01-26T04:21:51.729Z,43.23
2019-01-26T04:24:20.050Z,46.92
2019-01-26T04:26:48.366Z,48.27
2019-01-26T04:29:16.612Z,46.53
2019-01-26T04:31:44.952Z,46.77
2019-01-26T04:34:16.813Z,47.43
2019-01-26T04:36:44.889Z,44.53
2019-01-26T04:39:13.150Z,47.47
2019-01-26T04:41:43.420Z,47.07
2019-01-26T04:44:11.416Z,45.33
2019-01-26T04:46:39.688Z,44.43
2019-01-26T04:49:08.164Z,45.70
2019-01-26T04:51:36.255Z,44.97
2019-01-26T04:54:04.677Z,46.70
2019-01-26T04:56:32.937Z,44.60
2019-01-26T04:59:01.230Z,44.00
2019-01-26T05:01:31.161Z,47.60
2019-01-26T05:03:59.452Z,45.73
2019-01-26T05:06:27.735Z,46.67
2019-01-26T05:08:57.737Z,49.70
2019-01-26T05:11:25.997Z,47.33
2019-01-26T05:13:54.644Z,47.73
2019-01-26T05:16:22.928Z,50.13
2019-01-26T05:18:51.212Z,50.53
2019-01-26T05:21:19.558Z,43.90
2019-01-26T05:23:51.902Z,46.63
2019-01-26T05:26:20.160Z,47.33
2019-01-26T05:28:48.506Z,48.77
2019-01-26T05:31:16.877Z,49.77
2019-01-26T05:33:45.232Z,48.77
2019-01-26T05:36:13.495Z,48.30
2019-01-26T05:38:41.810Z,48.13
2019-01-26T05:41:10.060Z,43.53
2019-01-26T05:43:38.331Z,51.07
2019-01-26T05:46:06.349Z,58.00
2019-01-26T05:48:34.635Z,55.52
2019-01-26T05:51:02.950Z,50.63
2019-01-26T05:53:31.215Z,51.40
2019-01-26T05:55:59.475Z,53.57
2019-01-26T05:58:27.744Z,52.43
2019-01-26T06:00:56.034Z,51.03
2019-01-26T06:03:24.329Z,50.37
2019-01-26T06:05:54.218Z,48.52
2019-01-26T06:08:29.039Z,47.27
2019-01-26T06:11:00.265Z,47.30
2019-01-26T06:13:30.838Z,45.77
2019-01-26T06:15:58.539Z,43.35
2019-01-26T06:18:26.837Z,44.60
2019-01-26T06:20:55.110Z,40.63
2019-01-26T06:23:23.476Z,43.40
2019-01-26T06:25:55.072Z,40.47
2019-01-26T06:28:23.375Z,42.00
2019-01-26T06:30:51.645Z,38.13
2019-01-26T06:33:19.989Z,40.20
2019-01-26T06:35:51.367Z,42.27
2019-01-26T06:38:19.684Z,41.40
2019-01-26T06:40:47.718Z,42.93
2019-01-26T06:43:17.192Z,39.43
2019-01-26T06:45:45.525Z,43.20
2019-01-26T06:48:13.779Z,46.92
2019-01-26T06:50:42.074Z,43.60
2019-01-26T06:53:10.357Z,47.70
2019-01-26T06:55:38.747Z,45.07
2019-01-26T06:58:07.029Z,46.27
2019-01-26T07:00:35.428Z,42.70
2019-01-26T07:03:04.287Z,43.73
2019-01-26T07:05:36.652Z,43.75
2019-01-26T07:08:05.210Z,43.30
2019-01-26T07:10:34.283Z,38.67
2019-01-26T07:13:04.000Z,39.53
2019-01-26T07:15:32.025Z,35.03
2019-01-26T07:18:00.298Z,36.50
2019-01-26T07:20:30.197Z,37.93
2019-01-26T07:22:58.682Z,34.17
2019-01-26T07:25:30.531Z,38.50
2019-01-26T07:28:00.770Z,34.30
2019-01-26T07:30:29.222Z,33.30
2019-01-26T07:32:57.904Z,31.43
2019-01-26T07:35:26.417Z,31.60
2019-01-26T07:37:55.277Z,32.93
2019-01-26T07:40:26.809Z,25.80
2019-01-26T07:42:55.155Z,25.47
2019-01-26T07:45:23.809Z,34.53
2019-01-26T07:47:53.699Z,31.63
2019-01-26T07:50:26.268Z,30.65
2019-01-26T07:52:54.620Z,30.97
2019-01-26T07:55:22.884Z,31.97
2019-01-26T07:57:51.153Z,30.67
2019-01-26T08:00:22.157Z,35.27
2019-01-26T08:02:53.549Z,34.70
2019-01-26T08:08:09.397Z,33.70
2019-01-26T08:10:37.719Z,31.65
2019-01-26T08:13:06.105Z,33.77
2019-01-26T08:15:40.471Z,32.83
2019-01-26T08:18:08.775Z,33.30
2019-01-26T08:20:37.065Z,32.97
2019-01-26T08:23:05.442Z,31.80
2019-01-26T08:25:33.757Z,30.93
2019-01-26T08:28:02.065Z,36.47
2019-01-26T08:30:30.492Z,32.43
2019-01-26T08:32:58.896Z,32.33
2019-01-26T08:35:27.448Z,37.43
2019-01-26T08:37:55.782Z,32.28
2019-01-26T08:40:24.369Z,30.87
2019-01-26T08:42:52.631Z,32.67
2019-01-26T08:45:20.984Z,35.63
2019-01-26T08:47:50.919Z,34.70
2019-01-26T08:50:21.588Z,34.57
2019-01-26T08:52:49.907Z,33.37
2019-01-26T08:55:18.754Z,34.38
2019-01-26T08:57:47.092Z,32.50
2019-01-26T09:00:21.480Z,34.83
2019-01-26T09:02:55.250Z,34.37
2019-01-26T09:05:34.255Z,37.70
2019-01-26T09:08:02.566Z,34.93
2019-01-26T09:10:31.498Z,30.63
2019-01-26T09:13:19.320Z,32.37
2019-01-26T09:15:49.503Z,33.93
2019-01-26T09:18:17.880Z,37.43
2019-01-26T09:20:46.153Z,36.97
2019-01-26T09:23:14.512Z,36.50
2019-01-26T09:25:42.632Z,30.70
2019-01-26T09:28:11.376Z,28.87
2019-01-26T09:30:39.673Z,29.30
2019-01-26T09:33:09.582Z,27.53
2019-01-26T09:35:42.494Z,31.33
2019-01-26T09:38:10.810Z,30.60
2019-01-26T09:40:41.852Z,29.87
2019-01-26T09:43:09.983Z,30.73
2019-01-26T09:45:38.091Z,30.10
2019-01-26T09:48:06.294Z,33.67
2019-01-26T09:50:34.391Z,28.77
2019-01-26T09:53:03.559Z,30.73
2019-01-26T09:55:31.644Z,30.87
2019-01-26T09:58:02.669Z,31.70
2019-01-26T10:00:30.978Z,29.77
2019-01-26T10:02:59.968Z,30.80
2019-01-26T10:05:28.027Z,31.77
2019-01-26T10:07:58.060Z,27.63
2019-01-26T10:10:26.053Z,27.80
2019-01-26T10:12:54.475Z,30.67
2019-01-26T10:15:25.473Z,30.72
2019-01-26T10:17:53.580Z,28.93
2019-01-26T10:20:25.997Z,28.90
2019-01-26T10:22:54.094Z,28.57
2019-01-26T10:25:22.130Z,31.77
2019-01-26T10:27:50.153Z,31.73
2019-01-26T10:30:24.285Z,26.90
2019-01-26T10:32:52.392Z,29.20
2019-01-26T10:35:21.271Z,26.23
2019-01-26T10:37:49.388Z,26.43
2019-01-26T10:40:19.074Z,25.13
2019-01-26T10:42:47.218Z,25.67
2019-01-26T10:45:15.308Z,23.33
2019-01-26T10:47:43.445Z,24.13
2019-01-26T10:50:11.496Z,24.57
2019-01-26T10:52:40.279Z,20.80
2019-01-26T10:55:09.840Z,25.13
2019-01-26T10:57:37.916Z,22.57
2019-01-26T11:00:07.959Z,22.90
2019-01-26T11:02:36.393Z,19.10
2019-01-26T11:05:05.732Z,22.10
2019-01-26T11:07:33.801Z,21.00
2019-01-26T11:10:02.830Z,23.47
2019-01-26T11:12:30.863Z,23.60
2019-01-26T11:15:02.661Z,23.03
2019-01-26T11:17:30.455Z,23.00
2019-01-26T11:19:58.499Z,22.43
2019-01-26T11:22:26.580Z,20.20
2019-01-26T11:24:54.601Z,21.93
2019-01-26T11:27:22.621Z,21.37
2019-01-26T11:29:50.751Z,21.97
2019-01-26T11:32:18.813Z,22.30
2019-01-26T11:34:46.898Z,21.00
2019-01-26T11:37:15.005Z,22.27
2019-01-26T11:39:44.961Z,22.47
2019-01-26T11:42:17.552Z,21.33
2019-01-26T11:44:47.603Z,20.55
2019-01-26T11:47:15.729Z,19.40
2019-01-26T11:49:47.683Z,19.23
2019-01-26T11:52:17.341Z,21.70
2019-01-26T11:54:47.220Z,20.07
2019-01-26T11:57:17.999Z,19.30
2019-01-26T11:59:47.687Z,18.00
2019-01-26T12:02:18.693Z,19.73
2019-01-26T12:04:49.116Z,17.43
2019-01-26T12:07:17.303Z,19.03
2019-01-26T12:09:48.593Z,19.13
2019-01-26T12:12:16.659Z,15.93
2019-01-26T12:14:44.901Z,18.60
2019-01-26T12:17:12.996Z,17.62
2019-01-26T12:19:41.111Z,21.00
2019-01-26T12:22:09.274Z,19.83
2019-01-26T12:24:37.291Z,15.83
2019-01-26T12:27:05.358Z,16.63
2019-01-26T12:29:33.485Z,15.30
2019-01-26T12:32:03.454Z,16.40
2019-01-26T12:34:31.293Z,15.63
2019-01-26T12:37:03.697Z,16.07
2019-01-26T12:39:31.783Z,13.80
2019-01-26T12:41:59.894Z,14.93
2019-01-26T12:44:27.942Z,13.00
2019-01-26T12:46:55.982Z,12.40
2019-01-26T12:49:29.490Z,13.30
2019-01-26T12:51:53.834Z,13.47
2019-01-26T12:54:21.982Z,12.93
2019-01-26T12:56:50.097Z,13.30
2019-01-26T12:59:24.001Z,11.97
2019-01-26T13:01:52.132Z,12.47
2019-01-26T13:04:20.264Z,13.13
2019-01-26T13:06:48.301Z,12.27
2019-01-26T13:09:16.566Z,11.40
2019-01-26T13:11:44.816Z,11.47
2019-01-26T13:14:13.228Z,11.17
2019-01-26T13:16:41.522Z,12.83
2019-01-26T13:19:09.907Z,12.53
2019-01-26T13:21:44.420Z,11.30
2019-01-26T13:24:08.256Z,11.63
2019-01-26T13:26:37.439Z,11.83
2019-01-26T13:29:08.634Z,10.63
2019-01-26T13:31:36.940Z,11.37
2019-01-26T13:34:05.208Z,10.87
2019-01-26T13:36:35.918Z,10.88
2019-01-26T13:39:07.200Z,9.33
2019-01-26T13:41:35.259Z,10.97
2019-01-26T13:44:03.855Z,11.50
2019-01-26T13:46:31.963Z,11.47
2019-01-26T13:49:00.144Z,11.57
2019-01-26T13:51:28.292Z,10.77
2019-01-26T13:53:56.550Z,10.47
2019-01-26T13:56:24.629Z,9.70
2019-01-26T13:58:52.706Z,9.40
2019-01-26T14:01:20.806Z,9.67
2019-01-26T14:03:50.478Z,10.27
2019-01-26T14:06:18.579Z,10.43
2019-01-26T14:08:46.620Z,8.90
2019-01-26T14:11:14.734Z,9.13
2019-01-26T14:13:42.801Z,10.30
2019-01-26T14:16:10.838Z,10.07
2019-01-26T14:18:39.158Z,9.63
2019-01-26T14:21:07.278Z,8.83
2019-01-26T14:23:37.030Z,11.97
2019-01-26T14:26:05.251Z,12.07
2019-01-26T14:28:33.311Z,11.67
2019-01-26T14:31:01.450Z,9.83
2019-01-26T14:33:30.340Z,12.10
2019-01-26T14:35:58.403Z,12.13
2019-01-26T14:38:26.644Z,12.60
2019-01-26T14:40:54.770Z,12.40
2019-01-26T14:43:22.787Z,37.27
2019-01-26T14:45:53.132Z,13.07
2019-01-26T14:48:21.259Z,11.60
2019-01-26T14:50:49.593Z,10.88
2019-01-26T14:53:18.540Z,10.78
2019-01-26T14:55:53.373Z,9.70
2019-01-26T14:58:21.426Z,10.80
2019-01-26T15:00:51.510Z,10.70
2019-01-26T15:03:19.564Z,10.83
2019-01-26T15:05:47.693Z,10.90
2019-01-26T15:08:15.842Z,12.47
2019-01-26T15:10:45.109Z,12.77
2019-01-26T15:13:13.289Z,13.00
2019-01-26T15:15:42.127Z,12.63
2019-01-26T15:18:10.241Z,10.90
2019-01-26T15:20:39.975Z,11.70
2019-01-26T15:23:08.672Z,12.40
2019-01-26T15:25:37.717Z,14.37
2019-01-26T15:28:09.926Z,13.43
2019-01-26T15:30:42.289Z,10.53
2019-01-26T15:33:13.500Z,11.20
2019-01-26T15:35:56.968Z,10.97
2019-01-26T15:38:25.079Z,11.77
2019-01-26T15:40:53.424Z,13.23
2019-01-26T15:43:22.195Z,13.07
2019-01-26T15:45:50.678Z,11.57
2019-01-26T15:48:24.872Z,12.40
2019-01-26T15:50:53.761Z,10.67
2019-01-26T15:53:22.052Z,13.77
2019-01-26T15:55:50.302Z,12.98
2019-01-26T15:58:18.443Z,11.67
2019-01-26T16:00:48.163Z,15.80
2019-01-26T16:03:16.342Z,17.33
2019-01-26T16:05:45.940Z,18.87
2019-01-26T16:08:20.064Z,18.77
2019-01-26T16:10:48.184Z,14.23
2019-01-26T16:13:16.364Z,12.23
2019-01-26T16:15:44.593Z,13.13
2019-01-26T16:18:12.651Z,14.73
2019-01-26T16:20:45.289Z,13.50
2019-01-26T16:23:13.623Z,13.03
2019-01-26T16:25:41.732Z,12.43
2019-01-26T16:28:15.884Z,14.83
2019-01-26T16:30:49.192Z,13.70
2019-01-26T16:33:18.882Z,13.80
2019-01-26T16:35:46.919Z,14.43
2019-01-26T16:38:15.026Z,15.30
2019-01-26T16:47:07.581Z,14.90
2019-01-26T16:53:06.841Z,17.80
2019-01-26T16:55:36.678Z,15.17
2019-01-26T16:58:04.756Z,13.55
2019-01-26T17:03:20.345Z,12.73
2019-01-26T17:05:48.403Z,12.55
2019-01-26T17:08:16.491Z,10.83
2019-01-26T17:10:46.362Z,10.90
2019-01-26T17:13:14.526Z,10.90
2019-01-26T17:15:45.209Z,10.30
2019-01-26T17:18:13.924Z,9.23
2019-01-26T17:20:43.496Z,9.67
2019-01-26T17:23:12.140Z,9.43
2019-01-26T17:25:40.210Z,10.27
2019-01-26T17:28:08.237Z,11.33
2019-01-26T17:30:40.188Z,9.97
2019-01-26T17:33:08.661Z,9.00
2019-01-26T17:35:36.876Z,12.27
2019-01-26T17:38:09.341Z,10.58
2019-01-26T17:40:37.942Z,9.03
2019-01-26T17:43:06.302Z,9.77
2019-01-26T17:45:34.420Z,9.83
2019-01-26T17:48:02.585Z,8.50
2019-01-26T17:50:32.171Z,9.17
2019-01-26T17:53:01.447Z,9.60
2019-01-26T17:55:30.522Z,9.70
2019-01-26T17:57:58.680Z,11.07
2019-01-26T18:00:32.382Z,8.67
2019-01-26T18:03:00.906Z,9.17
2019-01-26T18:05:30.023Z,8.83
2019-01-26T18:07:58.097Z,8.70
2019-01-26T18:10:26.467Z,8.13
2019-01-26T18:12:54.773Z,8.43
2019-01-26T18:15:22.935Z,8.03
2019-01-26T18:17:51.243Z,9.20
2019-01-26T18:20:48.925Z,9.00
2019-01-26T18:23:03.841Z,9.67
2019-01-26T18:25:33.567Z,11.13
2019-01-26T18:28:10.334Z,10.90
2019-01-26T18:30:59.150Z,10.80
2019-01-26T18:33:27.336Z,10.07
2019-01-26T18:35:55.373Z,9.77
2019-01-26T18:38:23.430Z,9.63
2019-01-26T18:40:52.253Z,9.53
2019-01-26T18:43:23.122Z,8.73
2019-01-26T18:45:51.244Z,8.97
2019-01-26T18:48:19.449Z,7.63
2019-01-26T18:50:48.355Z,8.50
2019-01-26T18:53:16.407Z,8.67
2019-01-26T18:55:44.447Z,8.23
2019-01-26T18:58:14.403Z,7.85
2019-01-26T19:00:44.864Z,8.73
2019-01-26T19:03:20.267Z,8.87
2019-01-26T19:05:48.327Z,9.10
2019-01-26T19:08:16.353Z,9.33
2019-01-26T19:10:44.505Z,7.13
2019-01-26T19:13:12.697Z,8.57
2019-01-26T19:15:40.790Z,8.10
2019-01-26T19:18:08.891Z,7.83
2019-01-26T19:20:36.936Z,6.67
2019-01-26T19:23:05.067Z,6.60
2019-01-26T19:25:33.083Z,7.58
2019-01-26T19:28:01.183Z,6.23
2019-01-26T19:30:29.279Z,7.00
2019-01-26T19:32:58.604Z,6.90
2019-01-26T19:35:26.768Z,7.63
2019-01-26T19:37:56.431Z,6.65
2019-01-26T19:40:26.242Z,7.20
2019-01-26T19:42:54.394Z,6.47
2019-01-26T19:45:23.364Z,6.73
2019-01-26T19:47:51.381Z,7.03
2019-01-26T19:50:20.667Z,7.47
2019-01-26T19:52:48.725Z,6.97
2019-01-26T19:55:17.615Z,6.60
2019-01-26T19:57:45.704Z,6.70
2019-01-26T20:00:15.369Z,6.70
2019-01-26T20:02:43.661Z,6.80
2019-01-26T20:05:13.623Z,7.00
2019-01-26T20:07:42.083Z,6.73
2019-01-26T20:10:10.508Z,6.00
2019-01-26T20:12:42.535Z,8.27
2019-01-26T20:15:12.948Z,6.57
2019-01-26T20:17:40.954Z,6.90
2019-01-26T20:20:10.982Z,7.50
2019-01-26T20:22:39.055Z,7.47
2019-01-26T20:25:07.200Z,7.87
2019-01-26T20:27:35.268Z,7.67
2019-01-26T20:30:04.748Z,7.13
2019-01-26T20:32:32.809Z,7.70
2019-01-26T20:35:01.927Z,6.03
2019-01-26T20:37:31.990Z,6.13
2019-01-26T20:40:00.087Z,6.65
2019-01-26T20:42:28.402Z,6.70
2019-01-26T20:44:56.468Z,6.37
2019-01-26T20:47:24.563Z,6.50
2019-01-26T20:49:52.629Z,6.90
2019-01-26T20:52:20.785Z,7.40
2019-01-26T20:54:48.953Z,6.63
2019-01-26T20:57:17.139Z,6.17
2019-01-26T20:59:45.148Z,6.43
2019-01-26T21:02:13.167Z,6.30
2019-01-26T21:04:44.347Z,5.93
2019-01-26T21:07:14.073Z,6.23
2019-01-26T21:09:42.163Z,6.00
2019-01-26T21:12:10.303Z,6.07
2019-01-26T21:14:38.444Z,5.17
2019-01-26T21:17:06.688Z,5.70
2019-01-26T21:19:40.225Z,5.63
2019-01-26T21:22:08.279Z,4.77
2019-01-26T21:24:36.372Z,4.90
2019-01-26T21:27:04.432Z,5.07
2019-01-26T21:29:32.460Z,5.30
2019-01-26T21:32:00.540Z,4.77
2019-01-26T21:34:30.173Z,5.70
2019-01-26T21:36:58.224Z,4.87
2019-01-26T21:39:26.309Z,4.90
2019-01-26T21:41:54.947Z,4.50
2019-01-26T21:44:23.455Z,4.20
2019-01-26T21:46:55.208Z,4.13
2019-01-26T21:49:23.487Z,3.97
2019-01-26T21:51:51.671Z,4.20
2019-01-26T21:54:21.363Z,4.43
2019-01-26T21:56:49.459Z,4.13
2019-01-26T21:59:17.586Z,3.30
2019-01-26T22:01:48.763Z,3.17
2019-01-26T22:04:16.848Z,3.27
2019-01-26T22:06:45.550Z,3.00
2019-01-26T22:09:13.773Z,3.50
2019-01-26T22:11:41.813Z,3.17
2019-01-26T22:14:11.520Z,3.27
2019-01-26T22:16:39.621Z,2.97
2019-01-26T22:19:08.603Z,3.00
2019-01-26T22:21:46.078Z,2.80
2019-01-26T22:24:16.971Z,2.63
2019-01-26T22:26:45.045Z,2.63
2019-01-26T22:29:13.096Z,3.02
2019-01-26T22:31:41.267Z,2.92
2019-01-26T22:34:09.354Z,2.83
2019-01-26T22:36:37.398Z,2.60
2019-01-26T22:39:08.239Z,3.00
2019-01-26T22:41:36.338Z,2.40
2019-01-26T22:44:04.350Z,2.50
2019-01-26T22:46:32.406Z,2.58
2019-01-26T22:49:02.102Z,3.00
2019-01-26T22:51:34.665Z,2.60
2019-01-26T22:54:04.356Z,3.10
2019-01-26T22:56:33.140Z,2.77
2019-01-26T22:59:02.326Z,4.80
2019-01-26T23:01:30.503Z,3.37
2019-01-26T23:04:03.144Z,2.90
2019-01-26T23:06:32.884Z,3.10
2019-01-26T23:09:02.627Z,3.00
2019-01-26T23:11:37.249Z,3.07
2019-01-26T23:14:06.911Z,3.87
2019-01-26T23:16:47.082Z,2.77
2019-01-26T23:19:27.957Z,2.77
2019-01-26T23:22:03.283Z,2.22
2019-01-26T23:24:47.767Z,2.60
2019-01-26T23:27:32.172Z,2.53
2019-01-26T23:30:10.512Z,1.83
2019-01-26T23:32:38.603Z,2.07
2019-01-26T23:35:09.433Z,2.50
2019-01-26T23:37:41.282Z,2.47
2019-01-26T23:40:17.949Z,2.07
2019-01-26T23:42:43.411Z,2.90
2019-01-26T23:45:13.153Z,2.60
2019-01-26T23:47:43.953Z,2.30
2019-01-26T23:50:14.625Z,2.57
2019-01-26T23:52:43.437Z,2.40
2019-01-26T23:55:11.439Z,1.97
2019-01-26T23:57:39.460Z,2.00
